sensor_id;sensor_type;location;lat;lon;timestamp;temperature;humidity
12481;DHT22;6305;48.398;11.762;2023-12-20T00:02:10;4.60;99.90
12481;DHT22;6305;48.398;11.762;2023-12-20T00:04:37;4.60;99.90
12481;DHT22;6305;48.398;11.762;2023-12-20T00:07:04;4.60;99.90
12481;DHT22;6305;48.398;11.762;2023-12-20T00:09:31;4.60;99.90
12481;DHT22;6305;48.398;11.762;2023-12-20T00:11:58;4.60;99.90
12481;DHT22;6305;48.398;11.762;2023-12-20T00:14:25;4.60;99.90
12481;DHT22;6305;48.398;11.762;2023-12-20T00:16:53;4.60;99.90
12481;DHT22;6305;48.398;11.762;2023-12-20T00:19:20;4.70;99.90
12481;DHT22;6305;48.398;11.762;2023-12-20T00:21:47;4.70;99.90
12481;DHT22;6305;48.398;11.762;2023-12-20T00:24:14;4.70;99.90
12481;DHT22;6305;48.398;11.762;2023-12-20T00:26:41;4.80;99.90
12481;DHT22;6305;48.398;11.762;2023-12-20T00:29:08;4.80;99.90
12481;DHT22;6305;48.398;11.762;2023-12-20T00:31:35;4.80;99.90
12481;DHT22;6305;48.398;11.762;2023-12-20T00:34:04;4.80;99.90
12481;DHT22;6305;48.398;11.762;2023-12-20T00:36:31;4.80;99.90
12481;DHT22;6305;48.398;11.762;2023-12-20T00:38:58;4.80;99.90
12481;DHT22;6305;48.398;11.762;2023-12-20T00:41:25;4.90;99.90
12481;DHT22;6305;48.398;11.762;2023-12-20T00:43:52;4.90;99.90
12481;DHT22;6305;48.398;11.762;2023-12-20T00:46:19;4.90;99.90
12481;DHT22;6305;48.398;11.762;2023-12-20T00:48:46;4.90;99.90
12481;DHT22;6305;48.398;11.762;2023-12-20T00:51:14;4.90;99.90
12481;DHT22;6305;48.398;11.762;2023-12-20T00:53:41;4.90;99.90
12481;DHT22;6305;48.398;11.762;2023-12-20T00:56:09;4.90;99.90
12481;DHT22;6305;48.398;11.762;2023-12-20T00:58:36;4.90;99.90
12481;DHT22;6305;48.398;11.762;2023-12-20T01:01:02;4.90;99.90
12481;DHT22;6305;48.398;11.762;2023-12-20T01:03:29;4.90;99.90
12481;DHT22;6305;48.398;11.762;2023-12-20T01:05:56;4.90;99.90
12481;DHT22;6305;48.398;11.762;2023-12-20T01:08:24;5.00;99.90
12481;DHT22;6305;48.398;11.762;2023-12-20T01:10:52;5.00;99.90
12481;DHT22;6305;48.398;11.762;2023-12-20T01:13:18;5.00;99.90
12481;DHT22;6305;48.398;11.762;2023-12-20T01:15:45;5.00;99.90
12481;DHT22;6305;48.398;11.762;2023-12-20T01:18:13;5.10;99.90
12481;DHT22;6305;48.398;11.762;2023-12-20T01:20:40;5.10;99.90
12481;DHT22;6305;48.398;11.762;2023-12-20T01:23:08;5.10;99.90
12481;DHT22;6305;48.398;11.762;2023-12-20T01:25:36;5.10;99.90
12481;DHT22;6305;48.398;11.762;2023-12-20T01:28:04;5.20;99.90
12481;DHT22;6305;48.398;11.762;2023-12-20T01:30:30;5.10;99.90
12481;DHT22;6305;48.398;11.762;2023-12-20T01:32:59;5.20;99.90
12481;DHT22;6305;48.398;11.762;2023-12-20T01:35:26;5.20;99.90
12481;DHT22;6305;48.398;11.762;2023-12-20T01:37:53;5.20;99.90
12481;DHT22;6305;48.398;11.762;2023-12-20T01:40:22;5.20;99.90
12481;DHT22;6305;48.398;11.762;2023-12-20T01:42:59;5.30;99.90
12481;DHT22;6305;48.398;11.762;2023-12-20T01:45:26;5.30;99.90
12481;DHT22;6305;48.398;11.762;2023-12-20T01:47:54;5.30;99.90
12481;DHT22;6305;48.398;11.762;2023-12-20T01:50:21;5.30;99.90
12481;DHT22;6305;48.398;11.762;2023-12-20T01:52:49;5.30;99.90
12481;DHT22;6305;48.398;11.762;2023-12-20T01:55:18;5.30;99.90
12481;DHT22;6305;48.398;11.762;2023-12-20T01:57:45;5.40;99.90
12481;DHT22;6305;48.398;11.762;2023-12-20T02:00:15;5.40;99.90
12481;DHT22;6305;48.398;11.762;2023-12-20T02:02:43;5.40;99.90
12481;DHT22;6305;48.398;11.762;2023-12-20T02:05:11;5.40;99.90
12481;DHT22;6305;48.398;11.762;2023-12-20T02:07:38;5.40;99.90
12481;DHT22;6305;48.398;11.762;2023-12-20T02:10:06;5.40;99.90
12481;DHT22;6305;48.398;11.762;2023-12-20T02:12:33;5.30;99.90
12481;DHT22;6305;48.398;11.762;2023-12-20T02:15:01;5.30;99.90
12481;DHT22;6305;48.398;11.762;2023-12-20T02:17:30;5.30;99.90
12481;DHT22;6305;48.398;11.762;2023-12-20T02:19:58;5.20;99.90
12481;DHT22;6305;48.398;11.762;2023-12-20T02:22:26;5.20;99.90
12481;DHT22;6305;48.398;11.762;2023-12-20T02:24:53;5.20;99.90
12481;DHT22;6305;48.398;11.762;2023-12-20T02:27:20;5.10;99.90
12481;DHT22;6305;48.398;11.762;2023-12-20T02:29:47;5.10;99.90
12481;DHT22;6305;48.398;11.762;2023-12-20T02:32:15;5.10;99.90
12481;DHT22;6305;48.398;11.762;2023-12-20T02:34:42;5.10;99.90
12481;DHT22;6305;48.398;11.762;2023-12-20T02:37:09;5.10;99.90
12481;DHT22;6305;48.398;11.762;2023-12-20T02:39:38;5.00;99.90
12481;DHT22;6305;48.398;11.762;2023-12-20T02:42:04;5.00;99.90
12481;DHT22;6305;48.398;11.762;2023-12-20T02:44:31;5.00;99.90
12481;DHT22;6305;48.398;11.762;2023-12-20T02:46:59;4.90;99.90
12481;DHT22;6305;48.398;11.762;2023-12-20T02:49:26;4.90;99.90
12481;DHT22;6305;48.398;11.762;2023-12-20T02:51:53;4.80;99.90
12481;DHT22;6305;48.398;11.762;2023-12-20T02:54:20;4.80;99.90
12481;DHT22;6305;48.398;11.762;2023-12-20T02:56:48;4.80;99.90
12481;DHT22;6305;48.398;11.762;2023-12-20T02:59:15;4.80;99.90
12481;DHT22;6305;48.398;11.762;2023-12-20T03:01:43;4.90;99.90
12481;DHT22;6305;48.398;11.762;2023-12-20T03:04:10;5.00;99.90
12481;DHT22;6305;48.398;11.762;2023-12-20T03:06:37;5.00;99.90
12481;DHT22;6305;48.398;11.762;2023-12-20T03:09:04;5.10;99.90
12481;DHT22;6305;48.398;11.762;2023-12-20T03:11:31;5.10;99.90
12481;DHT22;6305;48.398;11.762;2023-12-20T03:13:59;5.20;99.90
12481;DHT22;6305;48.398;11.762;2023-12-20T03:16:26;5.30;99.90
12481;DHT22;6305;48.398;11.762;2023-12-20T03:18:53;5.30;99.90
12481;DHT22;6305;48.398;11.762;2023-12-20T03:21:20;5.30;99.90
12481;DHT22;6305;48.398;11.762;2023-12-20T03:23:47;5.40;99.90
12481;DHT22;6305;48.398;11.762;2023-12-20T03:26:14;5.40;99.90
12481;DHT22;6305;48.398;11.762;2023-12-20T03:28:41;5.40;99.90
12481;DHT22;6305;48.398;11.762;2023-12-20T03:31:10;5.50;99.90
12481;DHT22;6305;48.398;11.762;2023-12-20T03:33:37;5.40;99.90
12481;DHT22;6305;48.398;11.762;2023-12-20T03:36:05;5.50;99.90
12481;DHT22;6305;48.398;11.762;2023-12-20T03:38:31;5.50;99.90
12481;DHT22;6305;48.398;11.762;2023-12-20T03:40:58;5.50;99.90
12481;DHT22;6305;48.398;11.762;2023-12-20T03:43:25;5.50;99.90
12481;DHT22;6305;48.398;11.762;2023-12-20T03:45:52;5.50;99.90
12481;DHT22;6305;48.398;11.762;2023-12-20T03:48:21;5.50;99.90
12481;DHT22;6305;48.398;11.762;2023-12-20T03:50:47;5.50;99.90
12481;DHT22;6305;48.398;11.762;2023-12-20T03:53:14;5.50;99.90
12481;DHT22;6305;48.398;11.762;2023-12-20T03:55:41;5.50;99.90
12481;DHT22;6305;48.398;11.762;2023-12-20T03:58:08;5.50;99.90
12481;DHT22;6305;48.398;11.762;2023-12-20T04:00:35;5.40;99.90
12481;DHT22;6305;48.398;11.762;2023-12-20T04:03:02;5.30;99.90
12481;DHT22;6305;48.398;11.762;2023-12-20T04:05:30;5.20;99.90
12481;DHT22;6305;48.398;11.762;2023-12-20T04:07:59;4.90;99.90
12481;DHT22;6305;48.398;11.762;2023-12-20T04:10:26;4.80;99.90
12481;DHT22;6305;48.398;11.762;2023-12-20T04:12:53;4.70;99.90
12481;DHT22;6305;48.398;11.762;2023-12-20T04:15:21;4.50;99.90
12481;DHT22;6305;48.398;11.762;2023-12-20T04:17:48;4.40;99.90
12481;DHT22;6305;48.398;11.762;2023-12-20T04:20:15;4.40;99.90
12481;DHT22;6305;48.398;11.762;2023-12-20T04:22:43;4.30;99.90
12481;DHT22;6305;48.398;11.762;2023-12-20T04:25:10;4.20;99.90
12481;DHT22;6305;48.398;11.762;2023-12-20T04:27:37;4.10;99.90
12481;DHT22;6305;48.398;11.762;2023-12-20T04:30:05;4.00;99.90
12481;DHT22;6305;48.398;11.762;2023-12-20T04:32:33;3.90;99.90
12481;DHT22;6305;48.398;11.762;2023-12-20T04:35:00;3.90;99.90
12481;DHT22;6305;48.398;11.762;2023-12-20T04:37:27;3.80;99.90
12481;DHT22;6305;48.398;11.762;2023-12-20T04:39:55;3.80;99.90
12481;DHT22;6305;48.398;11.762;2023-12-20T04:42:22;3.80;99.90
12481;DHT22;6305;48.398;11.762;2023-12-20T04:44:49;3.80;99.90
12481;DHT22;6305;48.398;11.762;2023-12-20T04:47:16;3.80;99.90
12481;DHT22;6305;48.398;11.762;2023-12-20T04:49:43;3.90;99.90
12481;DHT22;6305;48.398;11.762;2023-12-20T04:52:10;3.90;99.90
12481;DHT22;6305;48.398;11.762;2023-12-20T04:54:36;3.90;99.90
12481;DHT22;6305;48.398;11.762;2023-12-20T04:57:04;3.90;99.90
12481;DHT22;6305;48.398;11.762;2023-12-20T04:59:31;4.00;99.90
12481;DHT22;6305;48.398;11.762;2023-12-20T05:01:58;4.00;99.90
12481;DHT22;6305;48.398;11.762;2023-12-20T05:04:25;4.00;99.90
12481;DHT22;6305;48.398;11.762;2023-12-20T05:06:52;4.00;99.90
12481;DHT22;6305;48.398;11.762;2023-12-20T05:09:19;4.00;99.90
12481;DHT22;6305;48.398;11.762;2023-12-20T05:11:46;4.00;99.90
12481;DHT22;6305;48.398;11.762;2023-12-20T05:14:14;4.00;99.90
12481;DHT22;6305;48.398;11.762;2023-12-20T05:16:41;4.00;99.90
12481;DHT22;6305;48.398;11.762;2023-12-20T05:19:08;4.00;99.90
12481;DHT22;6305;48.398;11.762;2023-12-20T05:21:35;4.00;99.90
12481;DHT22;6305;48.398;11.762;2023-12-20T05:24:02;4.10;99.90
12481;DHT22;6305;48.398;11.762;2023-12-20T05:26:29;4.10;99.90
12481;DHT22;6305;48.398;11.762;2023-12-20T05:28:56;4.10;99.90
12481;DHT22;6305;48.398;11.762;2023-12-20T05:31:24;4.10;99.90
12481;DHT22;6305;48.398;11.762;2023-12-20T05:33:50;4.10;99.90
12481;DHT22;6305;48.398;11.762;2023-12-20T05:36:18;4.10;99.90
12481;DHT22;6305;48.398;11.762;2023-12-20T05:38:45;4.10;99.90
12481;DHT22;6305;48.398;11.762;2023-12-20T05:41:12;4.10;99.90
12481;DHT22;6305;48.398;11.762;2023-12-20T05:43:39;4.20;99.90
12481;DHT22;6305;48.398;11.762;2023-12-20T05:46:06;4.20;99.90
12481;DHT22;6305;48.398;11.762;2023-12-20T05:48:34;4.20;99.90
12481;DHT22;6305;48.398;11.762;2023-12-20T05:51:01;4.20;99.90
12481;DHT22;6305;48.398;11.762;2023-12-20T05:53:28;4.20;99.90
12481;DHT22;6305;48.398;11.762;2023-12-20T05:55:55;4.20;99.90
12481;DHT22;6305;48.398;11.762;2023-12-20T05:58:22;4.20;99.90
12481;DHT22;6305;48.398;11.762;2023-12-20T06:00:49;4.20;99.90
12481;DHT22;6305;48.398;11.762;2023-12-20T06:03:16;4.20;99.90
12481;DHT22;6305;48.398;11.762;2023-12-20T06:05:44;4.20;99.90
12481;DHT22;6305;48.398;11.762;2023-12-20T06:08:11;4.20;99.90
12481;DHT22;6305;48.398;11.762;2023-12-20T06:10:38;4.20;99.90
12481;DHT22;6305;48.398;11.762;2023-12-20T06:13:05;4.20;99.90
12481;DHT22;6305;48.398;11.762;2023-12-20T06:15:33;4.30;99.90
12481;DHT22;6305;48.398;11.762;2023-12-20T06:18:01;4.30;99.90
12481;DHT22;6305;48.398;11.762;2023-12-20T06:20:28;4.30;99.90
12481;DHT22;6305;48.398;11.762;2023-12-20T06:22:56;4.30;99.90
12481;DHT22;6305;48.398;11.762;2023-12-20T06:25:23;4.30;99.90
12481;DHT22;6305;48.398;11.762;2023-12-20T06:27:50;4.20;99.90
12481;DHT22;6305;48.398;11.762;2023-12-20T06:30:17;4.20;99.90
12481;DHT22;6305;48.398;11.762;2023-12-20T06:32:44;4.30;99.90
12481;DHT22;6305;48.398;11.762;2023-12-20T06:35:12;4.20;99.90
12481;DHT22;6305;48.398;11.762;2023-12-20T06:37:39;4.20;99.90
12481;DHT22;6305;48.398;11.762;2023-12-20T06:40:10;4.20;99.90
12481;DHT22;6305;48.398;11.762;2023-12-20T06:42:37;4.20;99.90
12481;DHT22;6305;48.398;11.762;2023-12-20T06:45:05;4.20;99.90
12481;DHT22;6305;48.398;11.762;2023-12-20T06:47:32;4.20;99.90
12481;DHT22;6305;48.398;11.762;2023-12-20T06:49:59;4.20;99.90
12481;DHT22;6305;48.398;11.762;2023-12-20T06:52:26;4.20;99.90
12481;DHT22;6305;48.398;11.762;2023-12-20T06:54:53;4.20;99.90
12481;DHT22;6305;48.398;11.762;2023-12-20T06:57:21;4.10;99.90
12481;DHT22;6305;48.398;11.762;2023-12-20T06:59:49;4.10;99.90
12481;DHT22;6305;48.398;11.762;2023-12-20T07:02:17;4.10;99.90
12481;DHT22;6305;48.398;11.762;2023-12-20T07:04:44;4.10;99.90
12481;DHT22;6305;48.398;11.762;2023-12-20T07:07:11;4.10;99.90
12481;DHT22;6305;48.398;11.762;2023-12-20T07:09:38;4.10;99.90
12481;DHT22;6305;48.398;11.762;2023-12-20T07:12:08;4.10;99.90
12481;DHT22;6305;48.398;11.762;2023-12-20T07:14:36;4.10;99.90
12481;DHT22;6305;48.398;11.762;2023-12-20T07:17:03;4.10;99.90
12481;DHT22;6305;48.398;11.762;2023-12-20T07:19:30;4.10;99.90
12481;DHT22;6305;48.398;11.762;2023-12-20T07:21:58;4.00;99.90
12481;DHT22;6305;48.398;11.762;2023-12-20T07:24:25;4.00;99.90
12481;DHT22;6305;48.398;11.762;2023-12-20T07:26:52;4.00;99.90
12481;DHT22;6305;48.398;11.762;2023-12-20T07:29:19;4.00;99.90
12481;DHT22;6305;48.398;11.762;2023-12-20T07:31:47;4.00;99.90
12481;DHT22;6305;48.398;11.762;2023-12-20T07:34:14;4.00;99.90
12481;DHT22;6305;48.398;11.762;2023-12-20T07:36:41;4.00;99.90
12481;DHT22;6305;48.398;11.762;2023-12-20T07:39:08;3.90;99.90
12481;DHT22;6305;48.398;11.762;2023-12-20T07:41:35;3.90;99.90
12481;DHT22;6305;48.398;11.762;2023-12-20T07:44:04;3.90;99.90
12481;DHT22;6305;48.398;11.762;2023-12-20T07:46:31;3.90;99.90
12481;DHT22;6305;48.398;11.762;2023-12-20T07:48:59;3.90;99.90
12481;DHT22;6305;48.398;11.762;2023-12-20T07:51:26;3.90;99.90
12481;DHT22;6305;48.398;11.762;2023-12-20T07:53:53;3.90;99.90
12481;DHT22;6305;48.398;11.762;2023-12-20T07:56:20;3.90;99.90
12481;DHT22;6305;48.398;11.762;2023-12-20T07:58:47;3.90;99.90
12481;DHT22;6305;48.398;11.762;2023-12-20T08:01:16;3.90;99.90
12481;DHT22;6305;48.398;11.762;2023-12-20T08:03:43;3.90;99.90
12481;DHT22;6305;48.398;11.762;2023-12-20T08:06:11;3.90;99.90
12481;DHT22;6305;48.398;11.762;2023-12-20T08:08:38;3.90;99.90
12481;DHT22;6305;48.398;11.762;2023-12-20T08:11:05;3.90;99.90
12481;DHT22;6305;48.398;11.762;2023-12-20T08:13:32;3.90;99.90
12481;DHT22;6305;48.398;11.762;2023-12-20T08:15:59;4.00;99.90
12481;DHT22;6305;48.398;11.762;2023-12-20T08:18:28;3.90;99.90
12481;DHT22;6305;48.398;11.762;2023-12-20T08:20:55;4.00;99.90
12481;DHT22;6305;48.398;11.762;2023-12-20T08:23:23;4.00;99.90
12481;DHT22;6305;48.398;11.762;2023-12-20T08:25:50;4.00;99.90
12481;DHT22;6305;48.398;11.762;2023-12-20T08:28:17;4.00;99.90
12481;DHT22;6305;48.398;11.762;2023-12-20T08:30:44;4.00;99.90
12481;DHT22;6305;48.398;11.762;2023-12-20T08:33:11;4.10;99.90
12481;DHT22;6305;48.398;11.762;2023-12-20T08:35:38;4.10;99.90
12481;DHT22;6305;48.398;11.762;2023-12-20T08:38:05;4.10;99.90
12481;DHT22;6305;48.398;11.762;2023-12-20T08:40:34;4.10;99.90
12481;DHT22;6305;48.398;11.762;2023-12-20T08:43:01;4.20;99.90
12481;DHT22;6305;48.398;11.762;2023-12-20T08:45:28;4.20;99.90
12481;DHT22;6305;48.398;11.762;2023-12-20T08:47:55;4.30;99.90
12481;DHT22;6305;48.398;11.762;2023-12-20T08:50:22;4.40;99.90
12481;DHT22;6305;48.398;11.762;2023-12-20T08:52:49;4.40;99.90
12481;DHT22;6305;48.398;11.762;2023-12-20T08:55:16;4.50;99.90
12481;DHT22;6305;48.398;11.762;2023-12-20T08:57:45;4.50;99.90
12481;DHT22;6305;48.398;11.762;2023-12-20T09:00:13;4.60;99.90
12481;DHT22;6305;48.398;11.762;2023-12-20T09:02:40;4.60;99.90
12481;DHT22;6305;48.398;11.762;2023-12-20T09:05:08;4.70;99.90
12481;DHT22;6305;48.398;11.762;2023-12-20T09:07:35;4.70;99.90
12481;DHT22;6305;48.398;11.762;2023-12-20T09:10:02;4.70;99.90
12481;DHT22;6305;48.398;11.762;2023-12-20T09:12:29;4.80;99.90
12481;DHT22;6305;48.398;11.762;2023-12-20T09:14:57;4.80;99.90
12481;DHT22;6305;48.398;11.762;2023-12-20T09:17:25;4.80;99.90
12481;DHT22;6305;48.398;11.762;2023-12-20T09:19:52;4.90;99.90
12481;DHT22;6305;48.398;11.762;2023-12-20T09:22:19;4.90;99.90
12481;DHT22;6305;48.398;11.762;2023-12-20T09:24:46;4.90;99.90
12481;DHT22;6305;48.398;11.762;2023-12-20T09:27:14;4.90;99.90
12481;DHT22;6305;48.398;11.762;2023-12-20T09:29:41;4.80;99.90
12481;DHT22;6305;48.398;11.762;2023-12-20T09:32:10;4.80;99.90
12481;DHT22;6305;48.398;11.762;2023-12-20T09:34:37;4.80;99.90
12481;DHT22;6305;48.398;11.762;2023-12-20T09:37:04;4.80;99.90
12481;DHT22;6305;48.398;11.762;2023-12-20T09:39:31;4.70;99.90
12481;DHT22;6305;48.398;11.762;2023-12-20T09:42:01;4.70;99.90
12481;DHT22;6305;48.398;11.762;2023-12-20T09:44:28;4.70;99.90
12481;DHT22;6305;48.398;11.762;2023-12-20T09:46:56;4.70;99.90
12481;DHT22;6305;48.398;11.762;2023-12-20T09:49:27;4.60;99.90
12481;DHT22;6305;48.398;11.762;2023-12-20T09:51:54;4.60;99.90
12481;DHT22;6305;48.398;11.762;2023-12-20T09:54:22;4.60;99.90
12481;DHT22;6305;48.398;11.762;2023-12-20T09:56:49;4.60;99.90
12481;DHT22;6305;48.398;11.762;2023-12-20T09:59:16;4.70;99.90
12481;DHT22;6305;48.398;11.762;2023-12-20T10:01:44;4.70;99.90
12481;DHT22;6305;48.398;11.762;2023-12-20T10:04:12;4.80;99.90
12481;DHT22;6305;48.398;11.762;2023-12-20T10:06:41;4.90;99.90
12481;DHT22;6305;48.398;11.762;2023-12-20T10:09:09;5.00;99.90
12481;DHT22;6305;48.398;11.762;2023-12-20T10:11:37;5.10;99.90
12481;DHT22;6305;48.398;11.762;2023-12-20T10:14:04;5.20;99.90
12481;DHT22;6305;48.398;11.762;2023-12-20T10:16:32;5.20;99.90
12481;DHT22;6305;48.398;11.762;2023-12-20T10:19:00;5.20;99.90
12481;DHT22;6305;48.398;11.762;2023-12-20T10:21:28;5.20;99.90
12481;DHT22;6305;48.398;11.762;2023-12-20T10:23:57;5.20;99.90
12481;DHT22;6305;48.398;11.762;2023-12-20T10:26:24;5.20;99.90
12481;DHT22;6305;48.398;11.762;2023-12-20T10:28:54;5.10;99.90
12481;DHT22;6305;48.398;11.762;2023-12-20T10:31:28;5.10;99.90
12481;DHT22;6305;48.398;11.762;2023-12-20T10:33:56;5.00;99.90
12481;DHT22;6305;48.398;11.762;2023-12-20T10:36:25;5.00;99.90
12481;DHT22;6305;48.398;11.762;2023-12-20T10:38:54;5.00;99.90
12481;DHT22;6305;48.398;11.762;2023-12-20T10:41:28;5.00;99.90
12481;DHT22;6305;48.398;11.762;2023-12-20T10:43:56;4.90;99.90
12481;DHT22;6305;48.398;11.762;2023-12-20T10:46:26;4.90;99.90
12481;DHT22;6305;48.398;11.762;2023-12-20T10:48:54;4.90;99.90
12481;DHT22;6305;48.398;11.762;2023-12-20T10:51:22;4.80;99.90
12481;DHT22;6305;48.398;11.762;2023-12-20T10:53:53;4.90;99.90
12481;DHT22;6305;48.398;11.762;2023-12-20T10:56:20;4.80;99.90
12481;DHT22;6305;48.398;11.762;2023-12-20T10:58:50;4.80;99.90
12481;DHT22;6305;48.398;11.762;2023-12-20T11:01:18;4.90;99.90
12481;DHT22;6305;48.398;11.762;2023-12-20T11:03:49;5.00;99.90
12481;DHT22;6305;48.398;11.762;2023-12-20T11:06:26;5.00;99.90
12481;DHT22;6305;48.398;11.762;2023-12-20T11:09:01;5.00;99.90
12481;DHT22;6305;48.398;11.762;2023-12-20T11:11:39;5.10;99.90
12481;DHT22;6305;48.398;11.762;2023-12-20T11:14:15;5.10;99.90
12481;DHT22;6305;48.398;11.762;2023-12-20T11:16:44;5.20;99.90
12481;DHT22;6305;48.398;11.762;2023-12-20T11:19:11;5.30;99.90
12481;DHT22;6305;48.398;11.762;2023-12-20T11:21:40;5.30;99.90
12481;DHT22;6305;48.398;11.762;2023-12-20T11:24:07;5.40;99.90
12481;DHT22;6305;48.398;11.762;2023-12-20T11:26:34;5.30;99.90
12481;DHT22;6305;48.398;11.762;2023-12-20T11:29:33;5.30;99.90
12481;DHT22;6305;48.398;11.762;2023-12-20T11:32:02;5.20;99.90
12481;DHT22;6305;48.398;11.762;2023-12-20T11:34:32;5.30;99.90
12481;DHT22;6305;48.398;11.762;2023-12-20T11:37:00;5.40;99.90
12481;DHT22;6305;48.398;11.762;2023-12-20T11:39:30;5.40;99.90
12481;DHT22;6305;48.398;11.762;2023-12-20T11:42:04;5.40;99.90
12481;DHT22;6305;48.398;11.762;2023-12-20T11:44:32;5.50;99.90
12481;DHT22;6305;48.398;11.762;2023-12-20T11:46:59;5.60;99.90
12481;DHT22;6305;48.398;11.762;2023-12-20T11:49:26;5.70;99.90
12481;DHT22;6305;48.398;11.762;2023-12-20T11:51:55;5.80;99.90
12481;DHT22;6305;48.398;11.762;2023-12-20T11:54:22;5.80;99.90
12481;DHT22;6305;48.398;11.762;2023-12-20T11:56:49;5.80;99.90
12481;DHT22;6305;48.398;11.762;2023-12-20T11:59:16;5.90;99.90
12481;DHT22;6305;48.398;11.762;2023-12-20T12:01:49;5.80;99.90
12481;DHT22;6305;48.398;11.762;2023-12-20T12:04:16;5.70;99.90
12481;DHT22;6305;48.398;11.762;2023-12-20T12:06:43;5.70;99.90
12481;DHT22;6305;48.398;11.762;2023-12-20T12:09:11;5.70;99.90
12481;DHT22;6305;48.398;11.762;2023-12-20T12:11:38;5.70;99.90
12481;DHT22;6305;48.398;11.762;2023-12-20T12:14:06;5.70;99.90
12481;DHT22;6305;48.398;11.762;2023-12-20T12:16:33;5.60;99.90
12481;DHT22;6305;48.398;11.762;2023-12-20T12:19:01;5.50;99.90
12481;DHT22;6305;48.398;11.762;2023-12-20T12:21:30;5.40;99.90
12481;DHT22;6305;48.398;11.762;2023-12-20T12:24:07;5.50;99.90
12481;DHT22;6305;48.398;11.762;2023-12-20T12:26:33;5.60;99.90
12481;DHT22;6305;48.398;11.762;2023-12-20T12:29:01;5.80;99.90
12481;DHT22;6305;48.398;11.762;2023-12-20T12:31:28;5.80;99.90
12481;DHT22;6305;48.398;11.762;2023-12-20T12:33:56;5.90;99.90
12481;DHT22;6305;48.398;11.762;2023-12-20T12:36:24;5.90;99.90
12481;DHT22;6305;48.398;11.762;2023-12-20T12:38:51;5.90;99.90
12481;DHT22;6305;48.398;11.762;2023-12-20T12:41:18;6.00;99.90
12481;DHT22;6305;48.398;11.762;2023-12-20T12:43:45;6.10;99.90
12481;DHT22;6305;48.398;11.762;2023-12-20T12:46:12;6.30;99.90
12481;DHT22;6305;48.398;11.762;2023-12-20T12:48:39;6.60;99.90
12481;DHT22;6305;48.398;11.762;2023-12-20T12:51:06;7.40;99.90
12481;DHT22;6305;48.398;11.762;2023-12-20T12:53:39;9.00;99.90
12481;DHT22;6305;48.398;11.762;2023-12-20T12:56:06;10.50;99.90
12481;DHT22;6305;48.398;11.762;2023-12-20T12:58:34;10.40;99.90
12481;DHT22;6305;48.398;11.762;2023-12-20T13:01:01;9.50;99.90
12481;DHT22;6305;48.398;11.762;2023-12-20T13:03:29;8.90;99.90
12481;DHT22;6305;48.398;11.762;2023-12-20T13:05:56;8.30;99.90
12481;DHT22;6305;48.398;11.762;2023-12-20T13:08:23;7.80;99.90
12481;DHT22;6305;48.398;11.762;2023-12-20T13:10:51;7.30;99.90
12481;DHT22;6305;48.398;11.762;2023-12-20T13:13:18;7.10;99.90
12481;DHT22;6305;48.398;11.762;2023-12-20T13:15:45;6.90;99.90
12481;DHT22;6305;48.398;11.762;2023-12-20T13:18:16;6.90;99.90
12481;DHT22;6305;48.398;11.762;2023-12-20T13:20:43;6.80;99.90
12481;DHT22;6305;48.398;11.762;2023-12-20T13:23:10;6.80;99.90
12481;DHT22;6305;48.398;11.762;2023-12-20T13:25:37;6.80;99.90
12481;DHT22;6305;48.398;11.762;2023-12-20T13:28:06;6.80;99.90
12481;DHT22;6305;48.398;11.762;2023-12-20T13:30:34;6.60;99.90
12481;DHT22;6305;48.398;11.762;2023-12-20T13:33:01;6.40;99.90
12481;DHT22;6305;48.398;11.762;2023-12-20T13:35:28;6.30;99.90
12481;DHT22;6305;48.398;11.762;2023-12-20T13:37:55;6.20;99.90
12481;DHT22;6305;48.398;11.762;2023-12-20T13:40:22;6.10;99.90
12481;DHT22;6305;48.398;11.762;2023-12-20T13:42:49;6.00;99.90
12481;DHT22;6305;48.398;11.762;2023-12-20T13:45:17;5.90;99.90
12481;DHT22;6305;48.398;11.762;2023-12-20T13:47:44;5.90;99.90
12481;DHT22;6305;48.398;11.762;2023-12-20T13:50:11;5.90;99.90
12481;DHT22;6305;48.398;11.762;2023-12-20T13:52:38;5.80;99.90
12481;DHT22;6305;48.398;11.762;2023-12-20T13:55:06;5.80;99.90
12481;DHT22;6305;48.398;11.762;2023-12-20T13:57:33;5.70;99.90
12481;DHT22;6305;48.398;11.762;2023-12-20T14:00:04;5.70;99.90
12481;DHT22;6305;48.398;11.762;2023-12-20T14:02:35;5.60;99.90
12481;DHT22;6305;48.398;11.762;2023-12-20T14:05:03;5.60;99.90
12481;DHT22;6305;48.398;11.762;2023-12-20T14:07:30;5.60;99.90
12481;DHT22;6305;48.398;11.762;2023-12-20T14:09:56;5.60;99.90
12481;DHT22;6305;48.398;11.762;2023-12-20T14:12:25;5.60;99.90
12481;DHT22;6305;48.398;11.762;2023-12-20T14:14:52;5.60;99.90
12481;DHT22;6305;48.398;11.762;2023-12-20T14:17:21;5.50;99.90
12481;DHT22;6305;48.398;11.762;2023-12-20T14:19:49;5.50;99.90
12481;DHT22;6305;48.398;11.762;2023-12-20T14:22:17;5.50;99.90
12481;DHT22;6305;48.398;11.762;2023-12-20T14:24:44;5.40;99.90
12481;DHT22;6305;48.398;11.762;2023-12-20T14:27:11;5.40;99.90
12481;DHT22;6305;48.398;11.762;2023-12-20T14:29:39;5.30;99.90
12481;DHT22;6305;48.398;11.762;2023-12-20T14:32:06;5.20;99.90
12481;DHT22;6305;48.398;11.762;2023-12-20T14:34:33;5.00;99.90
12481;DHT22;6305;48.398;11.762;2023-12-20T14:37:01;4.90;99.90
12481;DHT22;6305;48.398;11.762;2023-12-20T14:39:28;4.90;99.90
12481;DHT22;6305;48.398;11.762;2023-12-20T14:41:55;4.70;99.90
12481;DHT22;6305;48.398;11.762;2023-12-20T14:44:22;4.60;99.90
12481;DHT22;6305;48.398;11.762;2023-12-20T14:46:49;4.40;99.90
12481;DHT22;6305;48.398;11.762;2023-12-20T14:49:16;4.30;99.90
12481;DHT22;6305;48.398;11.762;2023-12-20T14:51:44;4.10;99.90
12481;DHT22;6305;48.398;11.762;2023-12-20T14:54:14;3.90;99.90
12481;DHT22;6305;48.398;11.762;2023-12-20T14:56:41;3.80;99.90
12481;DHT22;6305;48.398;11.762;2023-12-20T14:59:08;3.70;99.90
12481;DHT22;6305;48.398;11.762;2023-12-20T15:01:35;3.50;99.90
12481;DHT22;6305;48.398;11.762;2023-12-20T15:04:02;3.50;99.90
12481;DHT22;6305;48.398;11.762;2023-12-20T15:06:29;3.40;99.90
12481;DHT22;6305;48.398;11.762;2023-12-20T15:08:57;3.30;99.90
12481;DHT22;6305;48.398;11.762;2023-12-20T15:11:25;3.20;99.90
12481;DHT22;6305;48.398;11.762;2023-12-20T15:13:52;3.10;99.90
12481;DHT22;6305;48.398;11.762;2023-12-20T15:16:21;3.20;99.90
12481;DHT22;6305;48.398;11.762;2023-12-20T15:18:49;3.20;99.90
12481;DHT22;6305;48.398;11.762;2023-12-20T15:21:16;3.20;99.90
12481;DHT22;6305;48.398;11.762;2023-12-20T15:23:43;3.30;99.90
12481;DHT22;6305;48.398;11.762;2023-12-20T15:26:18;3.30;99.90
12481;DHT22;6305;48.398;11.762;2023-12-20T15:28:46;3.20;99.90
12481;DHT22;6305;48.398;11.762;2023-12-20T15:31:13;3.20;99.90
12481;DHT22;6305;48.398;11.762;2023-12-20T15:33:40;3.20;99.90
12481;DHT22;6305;48.398;11.762;2023-12-20T15:36:07;3.10;99.90
12481;DHT22;6305;48.398;11.762;2023-12-20T15:38:34;2.90;99.90
12481;DHT22;6305;48.398;11.762;2023-12-20T15:41:01;2.80;99.90
12481;DHT22;6305;48.398;11.762;2023-12-20T15:43:28;2.80;99.90
12481;DHT22;6305;48.398;11.762;2023-12-20T15:45:57;2.80;99.90
12481;DHT22;6305;48.398;11.762;2023-12-20T15:48:24;2.80;99.90